Terminal Aerodrome Forecast
Issued by NWS

Home | Current Version | Previous Version | Text Only | Print | Product List | Glossary On
Versions: 1 2 3 4 5 6 7 8 9 10 11 12 13 14 15
000
FTUS45 KFGZ 062333
TAFSEZ
TAF
KSEZ 062333Z 0700/0724 16017G27KT P6SM SCT060 SCT090
     FM070200 17009KT P6SM SCT060 BKN090
      TEMPO 0702/0706 5SM -SHRA BKN040
     FM070600 19008KT P6SM -SHRA BKN040
     FM071000 19007KT P6SM BKN045=

USA.gov is the U.S. government's official web portal to all federal, state and local government web resources and services.